Time;durP1;ratioP1;P1;durP2;ratioP2;P2;SDS_P1;SDS_P2;PMS_P1;PMS_P2;Temp;Humidity;BMP_temperature;BMP_pressure;BME280_temperature;BME280_humidity;BME280_pressure;Samples;Min_cycle;Max_cycle;Signal;HPM_P1;HPM_P2
2021/12/23 00:00:29;;;;;;;1.70;1.70;;;1.00;99.90;;;;;;4970329;28;20220;-93
2021/12/23 00:02:55;;;;;;;1.57;1.37;;;1.00;99.90;;;;;;4970260;28;20215;-92
2021/12/23 00:05:20;;;;;;;3.30;3.10;;;1.00;99.90;;;;;;4969678;28;20212;-92
2021/12/23 00:07:46;;;;;;;4.40;2.40;;;1.00;99.90;;;;;;4954250;28;20184;-93
2021/12/23 00:10:12;;;;;;;2.00;1.90;;;1.00;99.90;;;;;;4966062;28;20237;-92
2021/12/23 00:12:40;;;;;;;4.07;2.20;;;1.00;99.90;;;;;;4949403;28;20817;-93
2021/12/23 00:25:36;;;;;;;2.33;2.13;;;1.10;99.90;;;;;;4990764;28;20323;-93
2021/12/23 00:28:02;;;;;;;12.40;4.07;;;1.20;99.90;;;;;;4973409;28;20327;-92
2021/12/23 00:30:28;;;;;;;2.63;2.27;;;1.20;99.90;;;;;;4973076;28;20214;-93
2021/12/23 00:32:56;;;;;;;3.10;2.90;;;1.20;99.90;;;;;;4957045;28;20219;-93
2021/12/23 00:35:22;;;;;;;2.13;2.03;;;1.20;99.90;;;;;;4973401;28;20227;-93
2021/12/23 00:37:50;;;;;;;4.80;2.03;;;1.10;99.90;;;;;;4973622;28;20188;-90
2021/12/23 00:40:17;;;;;;;2.73;2.17;;;1.20;99.90;;;;;;4989658;28;20760;-93
2021/12/23 00:42:42;;;;;;;1.93;1.83;;;1.10;99.90;;;;;;4956697;28;20222;-92
2021/12/23 00:45:09;;;;;;;2.93;1.57;;;1.20;99.90;;;;;;4972917;28;20220;-92
2021/12/23 00:47:35;;;;;;;1.87;1.77;;;1.20;99.90;;;;;;4989244;28;20227;-92
2021/12/23 00:50:01;;;;;;;3.20;3.07;;;1.10;99.90;;;;;;4989474;28;20273;-91
2021/12/23 00:52:34;;;;;;;1.93;1.83;;;1.20;99.90;;;;;;4973216;28;20659;-93
2021/12/23 00:55:00;;;;;;;1.40;1.33;;;1.20;99.90;;;;;;4974719;28;20259;-91
2021/12/23 00:57:28;;;;;;;1.10;1.10;;;1.10;99.90;;;;;;4971619;28;20635;-94
2021/12/23 00:59:55;;;;;;;0.63;0.63;;;1.10;99.90;;;;;;4971175;28;20300;-94
2021/12/23 01:02:31;;;;;;;4.50;2.17;;;1.10;99.90;;;;;;4986482;28;20647;-93
2021/12/23 01:04:56;;;;;;;0.80;0.80;;;1.10;99.90;;;;;;4963564;28;20192;-92
2021/12/23 01:07:23;;;;;;;1.10;1.10;;;1.00;99.90;;;;;;4962327;28;20275;-92
2021/12/23 01:09:48;;;;;;;3.17;2.97;;;1.00;99.90;;;;;;4961668;28;20336;-90
2021/12/23 01:12:18;;;;;;;3.27;2.97;;;1.10;99.90;;;;;;4963268;28;20299;-93
2021/12/23 01:14:56;;;;;;;1.33;1.27;;;1.20;99.90;;;;;;4978668;28;20677;-93
2021/12/23 01:17:32;;;;;;;1.10;1.10;;;1.20;99.90;;;;;;4957516;28;20230;-92
2021/12/23 01:20:01;;;;;;;1.33;1.33;;;1.20;99.90;;;;;;4978364;28;20547;-93
2021/12/23 01:22:26;;;;;;;2.43;2.17;;;1.20;99.90;;;;;;4955710;28;20288;-92
2021/12/23 01:24:52;;;;;;;2.07;1.93;;;1.20;99.90;;;;;;4962309;28;20295;-92
2021/12/23 01:27:18;;;;;;;1.70;1.60;;;1.30;99.90;;;;;;4977530;28;20259;-92
2021/12/23 01:29:44;;;;;;;1.60;1.50;;;1.20;99.90;;;;;;4945052;28;20219;-92
2021/12/23 01:32:10;;;;;;;2.90;2.73;;;1.20;99.90;;;;;;4961614;28;20303;-93
2021/12/23 01:34:36;;;;;;;2.07;1.97;;;1.20;99.90;;;;;;4960812;28;20204;-92
2021/12/23 01:37:05;;;;;;;2.43;1.70;;;1.20;99.90;;;;;;4960804;28;20318;-91
2021/12/23 01:39:32;;;;;;;5.60;2.90;;;1.20;99.90;;;;;;4978255;28;20212;-92
2021/12/23 01:41:58;;;;;;;1.53;1.23;;;1.30;99.90;;;;;;4961287;28;20271;-92
2021/12/23 01:44:24;;;;;;;3.03;2.83;;;1.30;99.90;;;;;;4977539;28;21061;-92
2021/12/23 01:46:50;;;;;;;2.47;1.97;;;1.40;99.90;;;;;;4978299;28;20279;-93
2021/12/23 01:49:16;;;;;;;3.80;1.80;;;1.40;99.90;;;;;;4946703;28;20197;-91
2021/12/23 01:51:42;;;;;;;2.90;2.73;;;1.40;99.90;;;;;;4962233;28;21017;-93
2021/12/23 01:54:08;;;;;;;4.03;3.73;;;1.30;99.90;;;;;;4961810;28;20251;-93
2021/12/23 01:56:33;;;;;;;2.30;1.67;;;1.40;99.90;;;;;;4960400;28;20212;-90
2021/12/23 01:58:59;;;;;;;1.73;1.07;;;1.40;99.90;;;;;;4945727;28;20674;-93
2021/12/23 02:01:25;;;;;;;3.27;3.07;;;1.40;99.90;;;;;;4962647;28;20230;-93
2021/12/23 02:03:51;;;;;;;3.67;3.33;;;1.40;99.90;;;;;;4960341;28;20219;-92
2021/12/23 02:06:17;;;;;;;1.87;1.77;;;1.30;99.90;;;;;;4944674;28;20223;-93
2021/12/23 02:08:44;;;;;;;4.83;3.40;;;1.40;99.90;;;;;;4960371;28;20679;-92
2021/12/23 02:11:11;;;;;;;2.07;1.93;;;1.30;99.90;;;;;;4977372;28;20223;-93
2021/12/23 02:13:37;;;;;;;0.57;0.57;;;1.30;99.90;;;;;;4993567;28;20185;-93
2021/12/23 02:16:04;;;;;;;1.60;1.50;;;1.30;99.90;;;;;;4985747;28;20290;-92
2021/12/23 02:18:30;;;;;;;4.53;4.17;;;1.30;99.90;;;;;;4986825;28;20712;-92
2021/12/23 02:20:57;;;;;;;2.43;2.33;;;1.30;99.90;;;;;;4987886;28;20227;-92
2021/12/23 02:23:24;;;;;;;3.03;2.53;;;1.30;99.90;;;;;;4987340;28;20243;-92
2021/12/23 02:25:50;;;;;;;2.23;2.03;;;1.20;99.90;;;;;;4970609;28;20220;-93
2021/12/23 02:28:21;;;;;;;2.70;1.93;;;1.30;99.90;;;;;;4986677;28;20208;-92
2021/12/23 02:30:51;;;;;;;5.57;2.03;;;1.30;99.90;;;;;;4987380;28;20608;-93
2021/12/23 02:33:19;;;;;;;5.80;5.37;;;1.30;99.90;;;;;;4971506;28;20220;-93
2021/12/23 02:35:45;;;;;;;2.13;2.03;;;1.20;99.90;;;;;;4986832;28;20322;-93
2021/12/23 02:38:11;;;;;;;1.50;1.40;;;1.20;99.90;;;;;;4954649;28;20220;-93
2021/12/23 02:40:40;;;;;;;1.83;1.67;;;1.20;99.90;;;;;;4955377;28;20250;-93
2021/12/23 02:43:16;;;;;;;4.90;2.77;;;1.20;99.90;;;;;;5003188;28;20274;-91
2021/12/23 02:45:47;;;;;;;2.30;2.10;;;1.20;99.90;;;;;;4986695;28;20318;-92
2021/12/23 02:48:15;;;;;;;1.70;1.60;;;1.10;99.90;;;;;;4986545;28;20211;-93
2021/12/23 02:50:44;;;;;;;2.30;2.13;;;1.10;99.90;;;;;;4986947;28;20259;-91
2021/12/23 02:53:11;;;;;;;2.07;1.83;;;1.10;99.90;;;;;;4971273;28;20211;-93
2021/12/23 02:55:37;;;;;;;4.83;3.83;;;1.10;99.90;;;;;;4987528;28;20202;-92
2021/12/23 02:58:03;;;;;;;2.97;2.53;;;1.10;99.90;;;;;;4954372;28;20215;-93
2021/12/23 03:00:30;;;;;;;4.83;2.73;;;1.20;99.90;;;;;;4970904;28;20696;-94
2021/12/23 03:02:56;;;;;;;3.87;3.43;;;1.20;99.90;;;;;;4954183;28;20802;-91
2021/12/23 03:05:22;;;;;;;1.33;1.33;;;1.10;99.90;;;;;;4986277;28;20255;-92
2021/12/23 03:07:48;;;;;;;1.50;1.33;;;1.20;99.90;;;;;;4970445;28;20223;-92
2021/12/23 03:10:14;;;;;;;1.43;1.40;;;1.20;99.90;;;;;;4986842;28;20184;-93
2021/12/23 03:12:40;;;;;;;3.07;2.83;;;1.10;99.90;;;;;;4969304;28;20238;-93
2021/12/23 03:15:06;;;;;;;3.23;1.47;;;1.10;99.90;;;;;;4969957;28;20247;-90
2021/12/23 03:17:32;;;;;;;2.60;2.33;;;1.10;99.90;;;;;;4954118;28;20238;-93
2021/12/23 03:19:58;;;;;;;2.33;1.90;;;1.10;99.90;;;;;;4971109;28;20196;-91
2021/12/23 03:22:24;;;;;;;2.97;2.67;;;1.20;99.90;;;;;;4987176;28;20196;-92
2021/12/23 03:24:49;;;;;;;2.50;2.40;;;1.20;99.90;;;;;;4953913;28;20207;-92
2021/12/23 03:27:15;;;;;;;2.90;2.70;;;1.20;99.90;;;;;;4954204;28;20239;-90
2021/12/23 03:29:41;;;;;;;2.47;2.33;;;1.20;99.90;;;;;;4954662;28;20311;-92
2021/12/23 03:32:07;;;;;;;2.13;2.03;;;1.20;99.90;;;;;;4970104;28;20282;-93
2021/12/23 03:34:33;;;;;;;2.60;2.40;;;1.30;99.90;;;;;;4970658;28;20220;-92
2021/12/23 03:36:59;;;;;;;2.70;2.33;;;1.30;99.90;;;;;;4986180;28;20216;-92
2021/12/23 03:39:25;;;;;;;1.63;1.53;;;1.40;99.90;;;;;;4986203;28;20217;-91
2021/12/23 03:41:51;;;;;;;5.23;2.47;;;1.40;99.90;;;;;;4986707;28;20208;-93
2021/12/23 03:44:17;;;;;;;2.33;2.20;;;1.40;99.90;;;;;;5002183;28;20275;-92
2021/12/23 03:46:43;;;;;;;6.47;3.33;;;1.40;99.90;;;;;;4970790;28;20220;-93
2021/12/23 03:49:09;;;;;;;2.60;2.40;;;1.40;99.90;;;;;;4985759;28;20223;-93
2021/12/23 03:51:36;;;;;;;1.90;1.73;;;1.50;99.90;;;;;;4970121;28;20227;-93
2021/12/23 03:54:02;;;;;;;2.63;2.43;;;1.40;99.90;;;;;;4970206;28;21221;-92
2021/12/23 03:56:29;;;;;;;6.00;3.43;;;1.40;99.90;;;;;;4969890;28;20223;-93
2021/12/23 03:58:55;;;;;;;3.47;3.17;;;1.50;99.90;;;;;;4971769;28;20785;-91
2021/12/23 04:01:28;;;;;;;3.03;2.27;;;1.50;99.90;;;;;;4974361;28;20204;-92
2021/12/23 04:03:54;;;;;;;2.27;2.03;;;1.50;99.90;;;;;;5006125;28;20216;-93
2021/12/23 04:06:21;;;;;;;1.57;1.47;;;1.50;99.90;;;;;;4957383;28;20224;-92
2021/12/23 04:08:48;;;;;;;3.10;2.80;;;1.50;99.90;;;;;;4973563;28;20212;-93
2021/12/23 04:11:14;;;;;;;1.93;1.83;;;1.50;99.90;;;;;;5006169;28;20230;-93
2021/12/23 04:13:40;;;;;;;2.57;2.37;;;1.50;99.90;;;;;;4974282;28;20188;-92
2021/12/23 04:16:06;;;;;;;4.33;3.97;;;1.50;99.90;;;;;;4989868;28;20723;-91
2021/12/23 04:18:32;;;;;;;2.50;2.30;;;1.50;99.90;;;;;;4989165;28;20224;-92
2021/12/23 04:20:58;;;;;;;2.37;2.23;;;1.50;99.90;;;;;;4989623;28;20220;-92
2021/12/23 04:23:27;;;;;;;2.27;2.17;;;1.50;99.90;;;;;;4957413;28;20574;-92
2021/12/23 04:25:54;;;;;;;3.77;3.07;;;1.50;99.90;;;;;;4989727;28;20294;-92
2021/12/23 04:28:21;;;;;;;5.03;3.07;;;1.50;99.90;;;;;;4989545;28;20270;-92
2021/12/23 04:30:48;;;;;;;2.43;2.23;;;1.50;99.90;;;;;;4989659;28;20693;-92
2021/12/23 04:33:14;;;;;;;2.73;2.53;;;1.50;99.90;;;;;;4973491;28;20207;-92
2021/12/23 04:35:40;;;;;;;5.87;2.40;;;1.50;99.90;;;;;;4989657;28;20262;-91
2021/12/23 04:38:07;;;;;;;2.30;2.10;;;1.50;99.90;;;;;;4957309;28;20188;-92
2021/12/23 04:40:37;;;;;;;5.57;3.10;;;1.50;99.90;;;;;;4988894;28;20196;-92
2021/12/23 04:43:07;;;;;;;2.90;2.70;;;1.50;99.90;;;;;;4989177;28;20262;-91
2021/12/23 04:45:33;;;;;;;1.63;1.63;;;1.60;99.90;;;;;;4988814;28;20212;-92
2021/12/23 04:47:59;;;;;;;3.00;2.30;;;1.60;99.90;;;;;;4972740;28;20239;-91
2021/12/23 04:50:25;;;;;;;2.50;2.30;;;1.60;99.90;;;;;;4973015;28;20243;-93
2021/12/23 04:52:51;;;;;;;2.70;2.50;;;1.60;99.90;;;;;;4973037;28;20200;-92
2021/12/23 04:55:18;;;;;;;1.17;1.10;;;1.60;99.90;;;;;;4973645;28;20723;-91
2021/12/23 04:57:44;;;;;;;3.47;3.03;;;1.60;99.90;;;;;;4973232;28;20560;-93
2021/12/23 05:00:19;;;;;;;2.30;2.17;;;1.70;99.90;;;;;;4989839;28;20220;-93
2021/12/23 05:02:46;;;;;;;3.10;2.80;;;1.70;99.90;;;;;;4988414;28;20306;-93
2021/12/23 05:05:12;;;;;;;1.47;1.43;;;1.70;99.90;;;;;;4972114;28;20215;-92
2021/12/23 05:07:39;;;;;;;4.00;3.60;;;1.70;99.90;;;;;;4990002;28;20254;-91
2021/12/23 05:10:11;;;;;;;3.93;3.63;;;1.70;99.90;;;;;;4973426;28;20215;-92
2021/12/23 05:12:43;;;;;;;4.17;3.93;;;1.70;99.90;;;;;;4988888;28;20290;-93
2021/12/23 05:15:14;;;;;;;2.80;2.47;;;1.80;99.90;;;;;;4972658;28;20219;-93
2021/12/23 05:17:41;;;;;;;2.53;2.43;;;1.80;99.90;;;;;;4988592;28;20556;-93
2021/12/23 05:20:09;;;;;;;6.03;5.43;;;1.90;99.90;;;;;;5005072;28;20176;-92
2021/12/23 05:22:35;;;;;;;4.37;1.70;;;1.90;99.90;;;;;;4973350;28;20181;-92
2021/12/23 05:25:01;;;;;;;3.13;1.50;;;1.80;99.90;;;;;;4971526;28;20565;-92
2021/12/23 05:27:27;;;;;;;2.27;2.07;;;1.90;99.90;;;;;;4972242;28;20228;-93
2021/12/23 05:29:52;;;;;;;3.33;2.87;;;1.90;99.90;;;;;;4956789;28;20291;-93
2021/12/23 05:32:19;;;;;;;4.50;3.63;;;1.80;99.90;;;;;;4955897;28;20297;-93
2021/12/23 05:34:44;;;;;;;2.83;2.63;;;1.80;99.90;;;;;;4972748;28;20223;-93
2021/12/23 05:37:10;;;;;;;5.17;3.43;;;1.80;99.90;;;;;;4974588;28;20601;-92
2021/12/23 05:39:36;;;;;;;3.80;3.60;;;1.80;99.90;;;;;;4953899;28;20219;-92
2021/12/23 05:42:02;;;;;;;4.17;3.63;;;1.80;99.90;;;;;;4972376;28;20215;-93
2021/12/23 05:44:28;;;;;;;2.73;2.53;;;1.80;99.90;;;;;;4972160;28;20216;-93
2021/12/23 05:46:54;;;;;;;1.87;1.77;;;1.80;99.90;;;;;;4955896;28;20214;-93
2021/12/23 05:49:20;;;;;;;4.17;3.87;;;1.80;99.90;;;;;;4973154;28;20338;-94
2021/12/23 05:51:45;;;;;;;2.37;2.20;;;1.80;99.90;;;;;;4955792;28;20208;-94
2021/12/23 05:54:11;;;;;;;3.57;3.33;;;1.90;99.90;;;;;;4956467;28;20212;-92
2021/12/23 05:56:37;;;;;;;3.13;2.90;;;1.90;99.90;;;;;;4955563;28;20219;-92
2021/12/23 05:59:03;;;;;;;5.03;3.10;;;1.80;99.90;;;;;;4954603;28;20254;-93
2021/12/23 06:01:29;;;;;;;3.17;2.87;;;1.80;99.90;;;;;;4956395;28;20207;-93
2021/12/23 06:03:54;;;;;;;3.63;3.43;;;1.80;99.90;;;;;;4971351;28;20255;-92
2021/12/23 06:06:20;;;;;;;3.87;3.47;;;1.80;99.90;;;;;;4956185;28;20634;-92
2021/12/23 06:08:46;;;;;;;4.37;3.23;;;1.80;99.90;;;;;;4956032;28;20240;-93
2021/12/23 06:11:12;;;;;;;3.10;2.80;;;1.80;99.90;;;;;;4955747;28;20569;-92
2021/12/23 06:13:37;;;;;;;5.17;3.83;;;1.80;99.90;;;;;;4955739;28;20246;-92
2021/12/23 06:16:03;;;;;;;5.80;4.03;;;1.80;99.90;;;;;;4955909;28;20227;-93
2021/12/23 06:18:29;;;;;;;9.47;3.40;;;1.90;99.90;;;;;;4971971;28;20251;-94
2021/12/23 06:20:55;;;;;;;4.40;3.27;;;1.90;99.90;;;;;;4954388;28;20234;-94
2021/12/23 06:23:21;;;;;;;1.70;1.60;;;1.90;99.90;;;;;;4955619;28;20215;-93
2021/12/23 06:25:46;;;;;;;6.83;4.00;;;1.90;99.90;;;;;;4971829;28;20287;-92
2021/12/23 06:28:12;;;;;;;3.67;3.33;;;2.00;99.90;;;;;;4972042;28;20298;-94
2021/12/23 06:30:38;;;;;;;3.43;2.97;;;2.00;99.90;;;;;;4970745;28;20731;-93
2021/12/23 06:33:04;;;;;;;2.67;2.57;;;2.00;99.90;;;;;;4954693;28;20228;-91
2021/12/23 06:35:31;;;;;;;4.43;3.70;;;2.00;99.90;;;;;;4971442;28;20216;-94
2021/12/23 06:38:04;;;;;;;2.07;1.97;;;2.00;99.90;;;;;;4987169;28;20262;-94
2021/12/23 06:40:30;;;;;;;4.37;4.07;;;2.00;99.90;;;;;;4987862;28;20176;-93
2021/12/23 06:42:56;;;;;;;5.57;3.27;;;2.00;99.90;;;;;;4986872;28;20231;-92
2021/12/23 06:45:22;;;;;;;3.53;3.13;;;2.00;99.90;;;;;;4970383;28;20250;-93
2021/12/23 06:47:48;;;;;;;2.27;2.17;;;2.00;99.90;;;;;;4968732;28;20220;-93
2021/12/23 06:50:17;;;;;;;3.10;2.90;;;2.00;99.90;;;;;;4977956;28;20216;-92
2021/12/23 06:52:45;;;;;;;5.17;3.13;;;2.00;99.90;;;;;;4976594;28;20553;-93
2021/12/23 06:55:12;;;;;;;2.13;1.83;;;2.00;99.90;;;;;;4960810;28;20223;-93
2021/12/23 06:57:43;;;;;;;3.20;2.13;;;2.00;99.90;;;;;;4977332;28;20228;-93
2021/12/23 07:00:15;;;;;;;2.80;2.47;;;2.00;99.90;;;;;;4977421;28;20223;-94
2021/12/23 07:02:42;;;;;;;4.97;4.50;;;2.00;99.90;;;;;;4977008;28;20236;-94
2021/12/23 07:05:09;;;;;;;4.10;3.80;;;2.10;99.90;;;;;;4960041;28;20196;-93
2021/12/23 07:07:57;;;;;;;4.70;4.27;;;2.00;99.90;;;;;;4977800;28;20200;-94
2021/12/23 07:10:23;;;;;;;4.63;4.23;;;2.00;99.90;;;;;;4986182;28;20215;-88
2021/12/23 07:12:49;;;;;;;4.37;3.97;;;2.00;99.90;;;;;;5002510;28;20228;-92
2021/12/23 07:15:15;;;;;;;5.17;4.40;;;2.00;99.90;;;;;;4970142;28;20340;-92
2021/12/23 07:17:41;;;;;;;4.00;3.13;;;2.00;99.90;;;;;;4986161;28;20222;-92
2021/12/23 07:20:07;;;;;;;3.07;2.63;;;2.10;99.90;;;;;;4954344;28;20663;-90
2021/12/23 07:22:33;;;;;;;3.97;2.77;;;2.10;99.90;;;;;;4970829;28;20184;-91
2021/12/23 07:24:59;;;;;;;4.23;3.97;;;2.00;99.90;;;;;;4985387;28;20277;-91
2021/12/23 07:27:25;;;;;;;3.03;2.93;;;2.00;99.90;;;;;;4986592;28;20235;-93
2021/12/23 07:29:51;;;;;;;5.13;3.37;;;2.00;99.90;;;;;;4953951;28;20227;-91
2021/12/23 07:32:17;;;;;;;3.33;3.03;;;2.10;99.90;;;;;;4953981;28;20222;-91
2021/12/23 07:34:43;;;;;;;4.37;3.43;;;2.10;99.90;;;;;;4989362;28;20192;-91
2021/12/23 07:37:12;;;;;;;5.87;5.50;;;2.10;99.90;;;;;;4990341;28;20298;-92
2021/12/23 07:39:39;;;;;;;6.33;5.67;;;2.10;99.90;;;;;;4974020;28;20212;-89
2021/12/23 07:42:06;;;;;;;4.00;3.60;;;2.10;99.90;;;;;;4990064;28;20227;-92
2021/12/23 07:44:33;;;;;;;4.80;4.37;;;2.20;99.90;;;;;;4974302;28;20238;-91
2021/12/23 07:47:00;;;;;;;5.03;4.63;;;2.10;99.90;;;;;;4989955;28;20215;-90
2021/12/23 07:49:27;;;;;;;13.47;6.00;;;2.10;99.90;;;;;;4990542;28;20196;-90
2021/12/23 07:52:02;;;;;;;5.43;4.17;;;2.20;99.90;;;;;;4974067;28;20286;-93
2021/12/23 07:54:28;;;;;;;6.00;4.80;;;2.10;99.90;;;;;;4990142;28;20233;-90
2021/12/23 07:56:54;;;;;;;4.93;4.10;;;2.20;99.90;;;;;;4957917;28;20290;-90
2021/12/23 07:59:19;;;;;;;4.47;3.13;;;2.20;99.90;;;;;;4957194;28;20220;-90
2021/12/23 08:01:45;;;;;;;9.20;5.10;;;2.20;99.90;;;;;;4958145;28;20195;-92
2021/12/23 08:04:11;;;;;;;5.27;4.07;;;2.20;99.90;;;;;;4989820;28;20223;-91
2021/12/23 08:06:37;;;;;;;5.50;5.10;;;2.20;99.90;;;;;;4973223;28;20303;-91
2021/12/23 08:09:03;;;;;;;8.80;5.80;;;2.20;99.90;;;;;;4972176;28;20208;-92
2021/12/23 08:11:29;;;;;;;4.80;3.87;;;2.20;99.90;;;;;;4963524;28;20391;-90
2021/12/23 08:13:54;;;;;;;7.10;5.40;;;2.30;99.90;;;;;;4947418;28;20684;-92
2021/12/23 08:16:20;;;;;;;5.87;5.40;;;2.30;99.90;;;;;;4963873;28;20271;-91
2021/12/23 08:18:46;;;;;;;12.97;5.27;;;2.30;99.90;;;;;;4947185;28;20223;-92
2021/12/23 08:21:12;;;;;;;6.40;5.77;;;2.40;99.90;;;;;;4945613;28;20224;-90
2021/12/23 08:23:38;;;;;;;6.67;5.47;;;2.30;99.90;;;;;;4980521;28;20243;-89
2021/12/23 08:26:04;;;;;;;12.27;4.40;;;2.40;99.90;;;;;;4962573;28;20220;-90
2021/12/23 08:28:31;;;;;;;6.33;5.70;;;2.40;99.90;;;;;;4963941;28;20203;-92
2021/12/23 08:30:58;;;;;;;6.20;5.47;;;2.40;99.90;;;;;;4962592;28;20204;-90
2021/12/23 08:33:24;;;;;;;6.77;6.17;;;2.40;99.90;;;;;;4994932;28;20216;-89
2021/12/23 08:35:50;;;;;;;8.07;4.97;;;2.40;99.90;;;;;;4947396;28;20651;-89
2021/12/23 08:38:16;;;;;;;7.90;6.10;;;2.40;99.90;;;;;;4946848;28;20263;-91
2021/12/23 08:40:41;;;;;;;5.80;5.33;;;2.40;99.90;;;;;;4987633;28;20247;-89
2021/12/23 08:43:07;;;;;;;7.97;4.50;;;2.40;99.90;;;;;;4947284;28;20856;-90
2021/12/23 08:45:35;;;;;;;17.03;6.83;;;2.40;99.90;;;;;;4961782;28;20216;-90
2021/12/23 08:48:02;;;;;;;10.40;5.67;;;2.50;99.90;;;;;;4980206;28;20231;-90
2021/12/23 08:50:30;;;;;;;7.60;6.80;;;2.50;99.90;;;;;;4955544;28;20220;-89
2021/12/23 08:52:56;;;;;;;6.57;6.00;;;2.50;99.90;;;;;;4978334;28;20208;-90
2021/12/23 08:55:22;;;;;;;7.13;6.40;;;2.50;99.90;;;;;;4947798;28;20191;-89
2021/12/23 08:57:48;;;;;;;8.90;5.83;;;2.50;99.90;;;;;;4961604;28;20276;-90
2021/12/23 09:00:17;;;;;;;6.93;6.23;;;2.50;99.90;;;;;;4963681;28;21248;-90
2021/12/23 09:02:44;;;;;;;7.47;5.67;;;2.50;99.90;;;;;;4977802;28;20357;-88
2021/12/23 09:05:10;;;;;;;10.63;5.73;;;2.40;99.90;;;;;;4977364;28;20220;-89
2021/12/23 09:07:36;;;;;;;9.27;8.37;;;2.50;99.90;;;;;;4947145;28;20212;-89
2021/12/23 09:10:09;;;;;;;8.33;4.73;;;2.50;99.90;;;;;;4946810;28;20209;-88
2021/12/23 09:12:37;;;;;;;7.20;6.50;;;2.40;99.90;;;;;;4979046;28;20716;-89
2021/12/23 09:15:04;;;;;;;5.60;5.17;;;2.40;99.90;;;;;;4954198;28;20227;-89
2021/12/23 09:17:30;;;;;;;8.97;5.57;;;2.40;99.90;;;;;;4954567;28;20234;-89
2021/12/23 09:19:56;;;;;;;7.27;6.77;;;2.40;99.90;;;;;;4944687;28;20649;-89
2021/12/23 09:22:22;;;;;;;13.17;8.70;;;2.40;99.90;;;;;;4979519;28;20283;-89
2021/12/23 09:24:52;;;;;;;7.90;6.23;;;2.40;99.90;;;;;;4961968;28;20208;-89
2021/12/23 09:27:28;;;;;;;9.37;4.83;;;2.40;99.90;;;;;;4947120;28;20298;-89
2021/12/23 09:35:05;;;;;;;9.77;7.90;;;2.50;99.90;;;;;;4972208;28;20232;-89
2021/12/23 09:37:30;;;;;;;13.47;6.13;;;2.40;99.90;;;;;;4960712;28;20196;-89
2021/12/23 09:39:58;;;;;;;8.13;6.90;;;2.40;99.90;;;;;;4979412;28;20299;-89
2021/12/23 09:42:32;;;;;;;11.93;8.60;;;2.50;99.90;;;;;;4976781;28;20213;-90
2021/12/23 09:45:01;;;;;;;12.37;6.70;;;2.50;99.90;;;;;;4994055;28;20614;-90
2021/12/23 09:47:30;;;;;;;8.17;7.47;;;2.60;99.90;;;;;;4961481;28;21322;-90
2021/12/23 09:49:57;;;;;;;9.80;7.60;;;2.60;99.90;;;;;;4995203;28;20713;-88
2021/12/23 09:52:27;;;;;;;9.00;7.90;;;2.60;99.90;;;;;;4977900;28;20195;-90
2021/12/23 09:54:55;;;;;;;13.00;9.73;;;2.50;99.90;;;;;;4977668;28;20220;-88
2021/12/23 09:57:21;;;;;;;6.47;5.80;;;2.60;99.90;;;;;;4977014;28;20225;-89
2021/12/23 09:59:48;;;;;;;10.67;5.03;;;2.60;99.90;;;;;;4964360;28;20222;-89
2021/12/23 10:02:14;;;;;;;10.57;8.63;;;2.60;99.90;;;;;;4969062;28;20243;-88
2021/12/23 10:04:40;;;;;;;9.60;7.33;;;2.60;99.90;;;;;;4978047;28;20196;-89
2021/12/23 10:07:07;;;;;;;8.53;5.40;;;2.60;99.90;;;;;;4960051;28;20220;-89
2021/12/23 10:32:19;;;;;;;7.57;6.67;;;2.50;99.90;;;;;;4898601;29;20229;-90
2021/12/23 10:37:18;;;;;;;13.30;8.70;;;2.50;99.90;;;;;;4932427;28;20243;-89
2021/12/23 10:40:08;;;;;;;7.80;7.03;;;2.50;99.90;;;;;;4999019;28;20223;-88
2021/12/23 10:42:34;;;;;;;11.20;7.43;;;2.50;99.90;;;;;;4986198;28;20211;-89
2021/12/23 10:45:08;;;;;;;3.90;3.63;;;2.60;99.90;;;;;;4970069;28;20215;-89
2021/12/23 10:48:03;;;;;;;4.97;3.13;;;2.50;99.90;;;;;;4986435;28;20259;-89
2021/12/23 10:50:43;;;;;;;7.50;5.03;;;2.60;99.90;;;;;;4988095;28;20219;-88
2021/12/23 10:59:07;;;;;;;5.30;4.70;;;2.60;99.90;;;;;;4988592;28;20198;-89
2021/12/23 11:01:36;;;;;;;10.83;6.33;;;2.60;99.90;;;;;;4986813;28;20547;-88
2021/12/23 11:04:05;;;;;;;6.83;6.27;;;2.60;99.90;;;;;;4970028;28;20267;-88
2021/12/23 11:06:41;;;;;;;8.73;7.20;;;2.60;99.90;;;;;;5003048;28;20228;-88
2021/12/23 11:09:33;;;;;;;6.57;5.60;;;2.70;99.90;;;;;;4986015;28;20223;-88
2021/12/23 11:41:54;;;;;;;6.43;5.83;;;3.00;99.90;;;;;;4986742;28;20223;-86
2021/12/23 11:44:20;;;;;;;8.73;6.23;;;3.00;99.90;;;;;;4986653;28;20231;-86
2021/12/23 11:46:53;;;;;;;6.60;5.00;;;3.10;99.90;;;;;;4970045;28;20208;-86
2021/12/23 11:49:24;;;;;;;5.40;5.00;;;3.00;99.90;;;;;;4986026;28;20212;-87
2021/12/23 11:51:55;;;;;;;9.80;7.20;;;3.00;99.90;;;;;;4952559;28;20231;-87
2021/12/23 11:54:27;;;;;;;7.80;7.07;;;3.10;99.90;;;;;;4984854;28;20240;-85
2021/12/23 11:57:01;;;;;;;6.17;4.20;;;3.10;99.90;;;;;;4986100;28;20220;-86
2021/12/23 11:59:28;;;;;;;8.90;5.50;;;3.10;99.90;;;;;;4984991;28;20219;-86
2021/12/23 12:01:55;;;;;;;5.80;5.30;;;3.10;99.90;;;;;;4985263;28;20188;-87
2021/12/23 12:04:31;;;;;;;5.80;4.67;;;3.10;99.90;;;;;;4987077;28;20184;-87
2021/12/23 12:06:58;;;;;;;5.93;5.33;;;3.20;99.90;;;;;;4981738;28;20720;-86
2021/12/23 12:09:28;;;;;;;7.63;6.97;;;3.20;99.90;;;;;;4956898;28;20228;-89
2021/12/23 12:11:59;;;;;;;10.27;6.83;;;3.30;99.90;;;;;;4982851;28;20323;-85
2021/12/23 12:14:40;;;;;;;5.67;5.17;;;3.20;99.90;;;;;;4984990;28;20216;-86
2021/12/23 12:17:30;;;;;;;7.87;3.47;;;3.20;99.90;;;;;;4985351;28;20558;-86
2021/12/23 12:20:09;;;;;;;5.60;4.17;;;3.20;99.90;;;;;;4986571;28;20267;-89
2021/12/23 12:22:59;;;;;;;8.43;5.70;;;3.30;99.90;;;;;;4989040;28;20550;-86
2021/12/23 12:25:24;;;;;;;16.43;7.37;;;3.30;99.90;;;;;;4988551;28;20266;-88
2021/12/23 12:27:56;;;;;;;13.97;8.37;;;3.40;99.90;;;;;;4988151;28;20246;-86
2021/12/23 12:30:34;;;;;;;9.67;7.63;;;3.40;99.90;;;;;;4989039;28;20228;-86
2021/12/23 12:33:02;;;;;;;17.47;8.70;;;3.40;99.90;;;;;;5004263;28;20219;-87
2021/12/23 12:35:29;;;;;;;7.07;4.67;;;3.40;99.90;;;;;;4987973;28;20226;-88
2021/12/23 12:38:12;;;;;;;5.50;5.00;;;3.50;99.90;;;;;;4989109;28;20192;-87
2021/12/23 12:40:59;;;;;;;13.87;7.70;;;3.40;99.90;;;;;;4988630;28;20239;-85
2021/12/23 12:43:46;;;;;;;6.70;4.77;;;3.60;99.90;;;;;;4967408;28;20829;-86
2021/12/23 12:46:14;;;;;;;9.30;5.90;;;3.50;99.90;;;;;;5004231;28;20274;-90
2021/12/23 12:48:56;;;;;;;13.60;8.20;;;3.50;99.90;;;;;;5003413;28;20274;-86
2021/12/23 12:51:26;;;;;;;5.20;4.20;;;3.50;99.90;;;;;;4988264;28;20704;-86
2021/12/23 12:53:55;;;;;;;9.63;6.40;;;3.60;99.90;;;;;;4987685;28;20215;-87
2021/12/23 12:56:34;;;;;;;9.70;6.63;;;3.50;99.90;;;;;;4987357;28;20228;-86
2021/12/23 12:59:00;;;;;;;4.67;4.20;;;3.50;99.90;;;;;;4987349;28;20293;-87
2021/12/23 13:01:34;;;;;;;6.17;5.67;;;3.50;99.90;;;;;;4971386;28;20208;-86
2021/12/23 13:04:02;;;;;;;6.70;5.93;;;3.50;99.90;;;;;;4988574;28;20215;-85
2021/12/23 13:06:39;;;;;;;11.87;8.43;;;3.50;99.90;;;;;;4987762;28;20714;-86
2021/12/23 13:09:10;;;;;;;15.27;6.07;;;3.50;99.90;;;;;;4971245;28;20215;-86
2021/12/23 13:11:40;;;;;;;11.07;6.33;;;3.60;99.90;;;;;;4971887;28;20224;-91
2021/12/23 13:14:12;;;;;;;9.90;7.63;;;3.60;99.90;;;;;;4972160;28;20217;-88
2021/12/23 13:16:51;;;;;;;6.60;6.10;;;3.60;99.90;;;;;;4988168;28;20949;-86
2021/12/23 13:19:17;;;;;;;9.70;6.60;;;3.60;99.90;;;;;;4987357;28;20215;-86
2021/12/23 13:21:51;;;;;;;7.67;6.93;;;3.70;99.90;;;;;;4987129;28;20684;-87
2021/12/23 13:24:19;;;;;;;12.50;8.30;;;3.70;99.90;;;;;;5003424;28;20234;-86
2021/12/23 13:26:49;;;;;;;9.37;8.53;;;3.60;99.90;;;;;;4970488;28;20215;-86
2021/12/23 13:29:15;;;;;;;17.27;10.23;;;3.70;99.90;;;;;;4970735;28;20220;-90
2021/12/23 13:31:43;;;;;;;15.07;9.40;;;3.60;99.90;;;;;;4988422;28;20191;-87
2021/12/23 13:34:21;;;;;;;11.83;7.63;;;3.60;99.90;;;;;;4986474;28;20223;-88
2021/12/23 13:36:50;;;;;;;5.27;4.93;;;3.60;99.90;;;;;;4986394;28;20216;-86
2021/12/23 13:39:19;;;;;;;7.93;5.87;;;3.60;99.90;;;;;;4987278;28;20211;-86
2021/12/23 13:41:54;;;;;;;7.73;5.87;;;3.60;99.90;;;;;;4986155;28;20306;-86
2021/12/23 13:44:50;;;;;;;9.80;6.73;;;3.60;99.90;;;;;;4987237;28;20218;-86
2021/12/23 13:47:19;;;;;;;4.60;3.87;;;3.60;99.90;;;;;;4986519;28;20248;-86
2021/12/23 13:49:56;;;;;;;18.43;7.50;;;3.60;99.90;;;;;;4971859;28;20653;-87
2021/12/23 13:52:40;;;;;;;8.23;7.27;;;3.60;99.90;;;;;;4986844;28;20220;-87
2021/12/23 13:55:15;;;;;;;8.53;6.13;;;3.60;99.90;;;;;;4987371;28;20242;-88
2021/12/23 13:57:46;;;;;;;11.57;7.37;;;3.60;99.90;;;;;;4987191;28;20646;-89
2021/12/23 14:00:23;;;;;;;4.53;2.93;;;3.60;99.90;;;;;;5003265;28;20230;-87
2021/12/23 14:02:53;;;;;;;6.63;5.80;;;3.60;99.90;;;;;;4987420;28;20220;-87
2021/12/23 14:05:20;;;;;;;8.77;7.97;;;3.60;99.90;;;;;;4988446;28;20615;-88
2021/12/23 14:07:49;;;;;;;13.80;9.50;;;3.70;99.90;;;;;;4970631;28;20283;-88
2021/12/23 14:10:27;;;;;;;9.37;6.47;;;3.70;99.90;;;;;;5003774;28;20252;-87
2021/12/23 14:12:54;;;;;;;17.10;10.67;;;3.70;99.90;;;;;;4970878;28;20703;-86
2021/12/23 14:15:29;;;;;;;11.57;8.73;;;3.70;99.90;;;;;;5003317;28;20215;-88
2021/12/23 14:18:02;;;;;;;10.77;5.97;;;3.70;99.90;;;;;;4970572;28;20212;-91